createdAt,value
2023-03-31T00:00:41.337Z,11.86
2023-03-31T00:01:41.330Z,11.83
2023-03-31T00:02:41.549Z,11.86
2023-03-31T00:03:41.381Z,11.90
2023-03-31T00:04:41.371Z,11.94
2023-03-31T00:05:41.278Z,11.90
2023-03-31T00:06:41.257Z,11.94
2023-03-31T00:07:41.253Z,12.00
2023-03-31T00:08:41.230Z,11.99
2023-03-31T00:09:41.219Z,11.99
2023-03-31T00:10:41.219Z,11.95
2023-03-31T00:11:41.205Z,11.97
2023-03-31T00:12:41.174Z,12.00
2023-03-31T00:13:41.177Z,12.00
2023-03-31T00:14:41.148Z,12.03
2023-03-31T00:15:41.148Z,12.07
2023-03-31T00:16:41.208Z,12.04
2023-03-31T00:17:41.173Z,12.10
2023-03-31T00:18:41.129Z,12.13
2023-03-31T00:19:41.087Z,12.20
2023-03-31T00:20:41.085Z,12.25
2023-03-31T00:21:41.056Z,12.27
2023-03-31T00:22:41.046Z,12.25
2023-03-31T00:23:41.035Z,12.29
2023-03-31T00:24:41.010Z,12.28
2023-03-31T00:25:41.015Z,12.24
2023-03-31T00:26:40.987Z,12.22
2023-03-31T00:27:40.973Z,12.20
2023-03-31T00:28:40.967Z,12.25
2023-03-31T00:29:40.967Z,12.20
2023-03-31T00:30:40.952Z,12.22
2023-03-31T00:31:40.951Z,12.27
2023-03-31T00:32:40.953Z,12.27
2023-03-31T00:33:40.895Z,12.24
2023-03-31T00:34:40.903Z,12.24
2023-03-31T00:35:40.910Z,12.29
2023-03-31T00:36:40.858Z,12.27
2023-03-31T00:37:40.842Z,12.27
2023-03-31T00:38:40.823Z,12.25
2023-03-31T00:39:40.827Z,12.22
2023-03-31T00:40:40.830Z,12.22
2023-03-31T00:41:40.785Z,12.18
2023-03-31T00:42:40.769Z,12.18
2023-03-31T00:43:40.774Z,12.18
2023-03-31T00:44:40.751Z,12.17
2023-03-31T00:45:40.765Z,12.15
2023-03-31T00:46:40.726Z,12.17
2023-03-31T00:47:40.740Z,12.10
2023-03-31T00:48:40.690Z,12.04
2023-03-31T00:49:40.676Z,12.00
2023-03-31T00:50:40.707Z,12.09
2023-03-31T00:51:40.655Z,12.06
2023-03-31T00:52:40.641Z,12.07
2023-03-31T00:53:40.635Z,12.15
2023-03-31T00:54:40.608Z,12.18
2023-03-31T00:55:40.616Z,12.27
2023-03-31T00:56:40.590Z,12.24
2023-03-31T00:57:40.574Z,12.20
2023-03-31T00:58:40.556Z,12.10
2023-03-31T00:59:40.567Z,12.02
2023-03-31T01:00:40.545Z,11.97
2023-03-31T01:01:40.545Z,11.91
2023-03-31T01:02:40.543Z,11.95
2023-03-31T01:03:40.514Z,12.09
2023-03-31T01:04:40.499Z,12.22
2023-03-31T01:05:40.484Z,12.21
2023-03-31T01:06:40.519Z,12.12
2023-03-31T01:07:40.445Z,12.13
2023-03-31T01:08:40.423Z,12.07
2023-03-31T01:09:40.421Z,12.04
2023-03-31T01:10:40.414Z,12.06
2023-03-31T01:11:40.387Z,12.09
2023-03-31T01:12:40.382Z,12.12
2023-03-31T01:13:40.362Z,12.20
2023-03-31T01:14:40.358Z,12.17
2023-03-31T01:15:40.358Z,12.17
2023-03-31T01:16:40.410Z,12.17
2023-03-31T01:17:40.461Z,12.10
2023-03-31T01:18:40.390Z,11.99
2023-03-31T01:19:40.282Z,11.88
2023-03-31T01:20:40.289Z,11.87
2023-03-31T01:21:40.254Z,11.81
2023-03-31T01:22:40.269Z,11.83
2023-03-31T01:23:40.230Z,11.75
2023-03-31T01:24:40.243Z,11.81
2023-03-31T01:25:40.230Z,11.83
2023-03-31T01:26:40.199Z,11.83
2023-03-31T01:27:40.200Z,11.84
2023-03-31T01:28:40.166Z,11.86
2023-03-31T01:29:40.154Z,11.86
2023-03-31T01:30:40.181Z,11.86
2023-03-31T01:31:40.182Z,11.88
2023-03-31T01:32:40.150Z,11.87
2023-03-31T01:33:40.127Z,11.84
2023-03-31T01:34:40.091Z,11.78
2023-03-31T01:35:40.194Z,11.78
2023-03-31T01:36:40.064Z,11.72
2023-03-31T01:37:40.052Z,11.81
2023-03-31T01:38:40.055Z,11.77
2023-03-31T01:39:40.024Z,11.70
2023-03-31T01:40:40.015Z,11.59
2023-03-31T01:41:40.041Z,11.51
2023-03-31T01:42:39.983Z,11.52
2023-03-31T01:43:39.970Z,11.52
2023-03-31T01:44:39.973Z,11.44
2023-03-31T01:45:39.958Z,11.37
2023-03-31T01:46:39.970Z,11.33
2023-03-31T01:47:39.935Z,11.35
2023-03-31T01:48:39.906Z,11.32
2023-03-31T01:49:39.891Z,11.32
2023-03-31T01:50:39.881Z,11.36
2023-03-31T01:51:39.922Z,11.40
2023-03-31T01:52:39.861Z,11.43
2023-03-31T01:53:39.847Z,11.44
2023-03-31T01:54:39.860Z,11.47
2023-03-31T01:55:39.821Z,11.50
2023-03-31T01:56:39.864Z,11.50
2023-03-31T01:57:39.793Z,11.50
2023-03-31T01:58:39.785Z,11.40
2023-03-31T01:59:39.762Z,11.36
2023-03-31T02:00:39.752Z,11.37
2023-03-31T02:01:39.805Z,11.30
2023-03-31T02:02:39.807Z,11.25
2023-03-31T02:03:39.826Z,11.19
2023-03-31T02:04:39.704Z,11.17
2023-03-31T02:05:39.692Z,11.22
2023-03-31T02:06:39.697Z,11.27
2023-03-31T02:07:39.661Z,11.30
2023-03-31T02:08:39.650Z,11.36
2023-03-31T02:09:39.637Z,11.40
2023-03-31T02:10:39.653Z,11.44
2023-03-31T02:11:39.654Z,11.45
2023-03-31T02:12:39.602Z,11.47
2023-03-31T02:13:39.597Z,11.47
2023-03-31T02:14:39.568Z,11.48
2023-03-31T02:15:39.564Z,11.47
2023-03-31T02:16:39.626Z,11.47
2023-03-31T02:17:39.580Z,11.48
2023-03-31T02:18:39.529Z,11.50
2023-03-31T02:19:39.520Z,11.50
2023-03-31T02:20:39.496Z,11.48
2023-03-31T02:21:39.501Z,11.44
2023-03-31T02:22:39.467Z,11.40
2023-03-31T02:23:39.452Z,11.40
2023-03-31T02:24:39.454Z,11.48
2023-03-31T02:25:39.426Z,11.48
2023-03-31T02:26:39.460Z,11.41
2023-03-31T02:27:39.406Z,11.41
2023-03-31T02:28:39.389Z,11.43
2023-03-31T02:29:39.379Z,11.50
2023-03-31T02:30:39.364Z,11.59
2023-03-31T02:31:39.466Z,11.66
2023-03-31T02:32:39.352Z,11.68
2023-03-31T02:33:39.335Z,11.69
2023-03-31T02:34:39.320Z,11.73
2023-03-31T02:35:39.337Z,11.81
2023-03-31T02:36:39.298Z,11.91
2023-03-31T02:37:39.295Z,11.91
2023-03-31T02:38:39.258Z,11.95
2023-03-31T02:39:39.236Z,12.00
2023-03-31T02:40:39.226Z,11.99
2023-03-31T02:41:39.215Z,11.99
2023-03-31T02:42:39.243Z,12.03
2023-03-31T02:43:39.204Z,12.03
2023-03-31T02:44:39.185Z,12.04
2023-03-31T02:45:39.199Z,12.09
2023-03-31T02:46:39.160Z,12.10
2023-03-31T02:47:39.229Z,12.10
2023-03-31T02:48:39.141Z,12.24
2023-03-31T02:49:39.120Z,12.20
2023-03-31T02:50:39.100Z,12.20
2023-03-31T02:51:39.091Z,12.24
2023-03-31T02:52:39.097Z,12.27
2023-03-31T02:53:39.064Z,12.39
2023-03-31T02:54:39.076Z,12.36
2023-03-31T02:55:39.045Z,12.37
2023-03-31T02:56:39.032Z,12.39
2023-03-31T02:57:39.026Z,12.42
2023-03-31T02:58:39.024Z,12.47
2023-03-31T02:59:38.995Z,12.45
2023-03-31T03:00:38.978Z,12.49
2023-03-31T03:01:39.037Z,12.47
2023-03-31T03:02:39.032Z,12.49
2023-03-31T03:03:38.987Z,12.50
2023-03-31T03:04:38.934Z,12.43
2023-03-31T03:05:38.910Z,12.43
2023-03-31T03:06:38.894Z,12.43
2023-03-31T03:07:38.907Z,12.45
2023-03-31T03:08:38.871Z,12.43
2023-03-31T03:09:38.864Z,12.39
2023-03-31T03:10:38.845Z,12.39
2023-03-31T03:11:38.829Z,12.40
2023-03-31T03:12:38.844Z,12.29
2023-03-31T03:13:38.805Z,12.25
2023-03-31T03:14:38.826Z,12.22
2023-03-31T03:15:38.797Z,12.27
2023-03-31T03:16:38.804Z,12.21
2023-03-31T03:17:38.765Z,12.22
2023-03-31T03:18:38.746Z,12.20
2023-03-31T03:19:38.734Z,12.17
2023-03-31T03:20:38.716Z,12.10
2023-03-31T03:21:38.700Z,12.10
2023-03-31T03:22:38.709Z,12.10
2023-03-31T03:23:38.669Z,12.02
2023-03-31T03:24:38.663Z,11.97
2023-03-31T03:25:38.654Z,11.94
2023-03-31T03:26:38.638Z,11.88
2023-03-31T03:27:38.634Z,11.84
2023-03-31T03:28:38.610Z,11.84
2023-03-31T03:29:38.626Z,11.80
2023-03-31T03:30:38.654Z,11.77
2023-03-31T03:31:38.581Z,11.73
2023-03-31T03:32:38.591Z,11.65
2023-03-31T03:33:38.554Z,11.65
2023-03-31T03:34:38.538Z,11.57
2023-03-31T03:35:38.651Z,11.52
2023-03-31T03:36:38.523Z,11.47
2023-03-31T03:37:38.544Z,11.45
2023-03-31T03:38:38.482Z,11.41
2023-03-31T03:39:38.468Z,11.37
2023-03-31T03:40:38.457Z,11.35
2023-03-31T03:41:38.459Z,11.36
2023-03-31T03:42:38.512Z,11.35
2023-03-31T03:43:38.422Z,11.30
2023-03-31T03:44:38.405Z,11.26
2023-03-31T03:45:38.385Z,11.27
2023-03-31T03:46:38.431Z,11.26
2023-03-31T03:47:38.394Z,11.25
2023-03-31T03:48:38.355Z,11.19
2023-03-31T03:49:38.338Z,11.25
2023-03-31T03:50:38.329Z,11.22
2023-03-31T03:51:38.324Z,11.23
2023-03-31T03:52:38.319Z,11.22
2023-03-31T03:53:38.302Z,11.15
2023-03-31T03:54:38.274Z,11.14
2023-03-31T03:55:38.253Z,11.15
2023-03-31T03:56:38.257Z,11.15
2023-03-31T03:57:38.230Z,11.10
2023-03-31T03:58:38.241Z,11.10
2023-03-31T03:59:38.212Z,11.10
2023-03-31T04:00:38.196Z,11.08
2023-03-31T04:01:38.249Z,11.08
2023-03-31T04:02:38.346Z,11.08
2023-03-31T04:03:38.179Z,11.04
2023-03-31T04:04:38.156Z,11.08
2023-03-31T04:05:38.121Z,11.04
2023-03-31T04:06:38.110Z,11.00
2023-03-31T04:07:38.093Z,10.97
2023-03-31T04:08:38.102Z,10.97
2023-03-31T04:09:38.068Z,10.94
2023-03-31T04:10:38.055Z,10.93
2023-03-31T04:11:38.099Z,10.94
2023-03-31T04:12:38.038Z,10.90
2023-03-31T04:13:38.031Z,10.94
2023-03-31T04:14:38.004Z,10.92
2023-03-31T04:15:37.986Z,10.93
2023-03-31T04:16:38.033Z,10.93
2023-03-31T04:17:37.983Z,10.92
2023-03-31T04:18:37.990Z,10.92
2023-03-31T04:19:37.937Z,10.89
2023-03-31T04:20:37.930Z,10.94
2023-03-31T04:21:37.908Z,10.97
2023-03-31T04:22:37.894Z,11.00
2023-03-31T04:23:37.893Z,11.02
2023-03-31T04:24:37.866Z,11.07
2023-03-31T04:25:37.872Z,11.07
2023-03-31T04:26:37.843Z,11.07
2023-03-31T04:27:37.831Z,11.11
2023-03-31T04:28:37.839Z,11.11
2023-03-31T04:29:37.812Z,11.08
2023-03-31T04:30:37.790Z,11.12
2023-03-31T04:31:37.813Z,11.14
2023-03-31T04:32:37.788Z,11.14
2023-03-31T04:33:37.763Z,11.17
2023-03-31T04:34:37.772Z,11.19
2023-03-31T04:35:37.733Z,11.22
2023-03-31T04:36:37.712Z,11.18
2023-03-31T04:37:37.695Z,11.22
2023-03-31T04:38:37.714Z,11.18
2023-03-31T04:39:37.680Z,11.19
2023-03-31T04:40:37.658Z,11.19
2023-03-31T04:41:37.644Z,11.19
2023-03-31T04:42:37.646Z,11.18
2023-03-31T04:43:37.630Z,11.26
2023-03-31T04:44:37.604Z,11.22
2023-03-31T04:45:37.643Z,11.27
2023-03-31T04:46:37.580Z,11.30
2023-03-31T04:47:37.592Z,11.26
2023-03-31T04:48:37.578Z,11.25
2023-03-31T04:49:37.557Z,11.26
2023-03-31T04:50:37.557Z,11.25
2023-03-31T04:51:37.519Z,11.30
2023-03-31T04:52:37.501Z,11.27
2023-03-31T04:53:37.511Z,11.27
2023-03-31T04:54:37.476Z,11.32
2023-03-31T04:55:37.466Z,11.27
2023-03-31T04:56:37.458Z,11.30
2023-03-31T04:57:37.440Z,11.27
2023-03-31T04:58:37.446Z,11.29
2023-03-31T04:59:37.409Z,11.33
2023-03-31T05:00:37.398Z,11.40
2023-03-31T05:01:37.426Z,11.43
2023-03-31T05:02:37.439Z,11.45
2023-03-31T05:03:37.513Z,11.45
2023-03-31T05:04:37.374Z,11.48
2023-03-31T05:05:37.338Z,11.50
2023-03-31T05:06:37.354Z,11.47
2023-03-31T05:07:37.337Z,11.52
2023-03-31T05:08:37.314Z,11.54
2023-03-31T05:09:37.288Z,11.57
2023-03-31T05:10:37.292Z,11.54
2023-03-31T05:11:37.262Z,11.59
2023-03-31T05:12:37.249Z,11.65
2023-03-31T05:13:37.258Z,11.73
2023-03-31T05:14:37.223Z,11.75
2023-03-31T05:15:37.211Z,11.77
2023-03-31T05:16:37.246Z,11.80
2023-03-31T05:17:37.212Z,11.86
2023-03-31T05:18:37.186Z,11.86
2023-03-31T05:19:37.190Z,11.91
2023-03-31T05:20:37.152Z,11.88
2023-03-31T05:21:37.136Z,11.91
2023-03-31T05:22:37.157Z,11.87
2023-03-31T05:23:37.148Z,11.88
2023-03-31T05:24:37.108Z,11.95
2023-03-31T05:25:37.087Z,11.95
2023-03-31T05:26:37.077Z,11.97
2023-03-31T05:27:37.055Z,11.90
2023-03-31T05:28:37.050Z,11.90
2023-03-31T05:29:37.110Z,11.88
2023-03-31T05:30:37.023Z,11.81
2023-03-31T05:31:37.042Z,11.72
2023-03-31T05:32:37.106Z,11.63
2023-03-31T05:33:36.978Z,11.51
2023-03-31T05:34:36.981Z,11.45
2023-03-31T05:35:36.992Z,11.40
2023-03-31T05:36:36.942Z,11.29
2023-03-31T05:37:36.942Z,11.25
2023-03-31T05:38:36.944Z,11.18
2023-03-31T05:39:36.928Z,11.11
2023-03-31T05:40:36.892Z,11.10
2023-03-31T05:41:36.881Z,11.02
2023-03-31T05:42:36.869Z,11.00
2023-03-31T05:43:36.851Z,10.96
2023-03-31T05:44:36.854Z,10.92
2023-03-31T05:45:36.821Z,10.93
2023-03-31T05:46:36.841Z,10.89
2023-03-31T05:47:36.955Z,10.87
2023-03-31T05:48:36.784Z,10.82
2023-03-31T05:49:36.788Z,10.81
2023-03-31T05:50:36.773Z,10.84
2023-03-31T05:51:36.753Z,10.81
2023-03-31T05:52:36.768Z,10.79
2023-03-31T05:53:36.741Z,10.76
2023-03-31T05:54:36.756Z,10.76
2023-03-31T05:55:36.702Z,10.79
2023-03-31T05:56:36.676Z,10.74
2023-03-31T05:57:36.682Z,10.76
2023-03-31T05:58:36.651Z,10.72
2023-03-31T05:59:36.678Z,10.76
2023-03-31T06:00:36.629Z,10.74
2023-03-31T06:01:36.704Z,10.74
2023-03-31T06:02:36.683Z,10.68
2023-03-31T06:03:36.708Z,10.67
2023-03-31T06:04:36.614Z,10.63
2023-03-31T06:05:36.562Z,10.64
2023-03-31T06:06:37.865Z,10.59
2023-03-31T06:07:36.534Z,10.61
2023-03-31T06:08:36.528Z,10.59
2023-03-31T06:09:36.538Z,10.60
2023-03-31T06:10:36.519Z,10.60
2023-03-31T06:11:36.487Z,10.57
2023-03-31T06:12:36.513Z,10.60
2023-03-31T06:13:36.471Z,10.60
2023-03-31T06:14:36.458Z,10.61
2023-03-31T06:15:36.785Z,10.63
2023-03-31T06:16:36.415Z,10.63
2023-03-31T06:17:38.511Z,10.60
2023-03-31T06:18:36.447Z,10.63
2023-03-31T06:19:36.405Z,10.61
2023-03-31T06:20:36.363Z,10.61
2023-03-31T06:21:36.354Z,10.59
2023-03-31T06:22:36.334Z,10.63
2023-03-31T06:23:36.325Z,10.60
2023-03-31T06:24:36.331Z,10.64
2023-03-31T06:25:49.970Z,10.64
2023-03-31T06:26:37.311Z,10.61
2023-03-31T06:27:36.276Z,10.63
2023-03-31T06:28:36.307Z,10.67
2023-03-31T06:29:36.268Z,10.68
2023-03-31T06:30:36.229Z,10.64
2023-03-31T06:31:36.242Z,10.64
2023-03-31T06:32:36.265Z,10.67
2023-03-31T06:33:36.253Z,10.64
2023-03-31T06:34:36.173Z,10.71
2023-03-31T06:35:36.210Z,10.69
2023-03-31T06:36:36.150Z,10.67
2023-03-31T06:37:36.139Z,10.68
2023-03-31T06:38:36.123Z,10.74
2023-03-31T06:39:36.114Z,10.75
2023-03-31T06:40:36.115Z,10.82
2023-03-31T06:41:36.085Z,10.81
2023-03-31T06:42:36.099Z,10.81
2023-03-31T06:43:36.063Z,10.81
2023-03-31T06:44:36.058Z,10.79
2023-03-31T06:45:36.359Z,10.79
2023-03-31T06:46:36.065Z,10.74
2023-03-31T06:47:36.056Z,10.74
2023-03-31T06:48:35.998Z,10.76
2023-03-31T06:49:35.989Z,10.78
2023-03-31T06:50:35.981Z,10.75
2023-03-31T06:51:35.956Z,10.76
2023-03-31T06:52:35.940Z,10.74
2023-03-31T06:53:35.928Z,10.75
2023-03-31T06:54:35.911Z,10.78
2023-03-31T06:55:35.914Z,10.75
2023-03-31T06:56:35.885Z,10.78
2023-03-31T06:57:35.879Z,10.76
2023-03-31T06:58:35.889Z,10.79
2023-03-31T06:59:35.858Z,10.82
2023-03-31T07:00:35.849Z,10.79
2023-03-31T07:01:35.891Z,10.79
2023-03-31T07:02:35.891Z,10.82
2023-03-31T07:03:35.892Z,10.89
2023-03-31T07:04:35.784Z,10.82
2023-03-31T07:05:35.785Z,10.78
2023-03-31T07:06:35.755Z,10.79
2023-03-31T07:07:35.743Z,10.82
2023-03-31T07:08:35.735Z,10.86
2023-03-31T07:09:35.726Z,10.87
2023-03-31T07:10:35.706Z,10.89
2023-03-31T07:11:35.705Z,10.92
2023-03-31T07:12:35.704Z,10.96
2023-03-31T07:13:35.668Z,10.93
2023-03-31T07:14:35.675Z,10.94
2023-03-31T07:15:35.652Z,10.96
2023-03-31T07:16:35.669Z,11.05
2023-03-31T07:17:35.655Z,11.04
2023-03-31T07:18:35.729Z,11.05
2023-03-31T07:19:35.585Z,11.02
2023-03-31T07:20:35.582Z,11.00
2023-03-31T07:21:35.578Z,11.02
2023-03-31T07:22:35.547Z,11.02
2023-03-31T07:23:35.536Z,11.02
2023-03-31T07:24:35.521Z,11.04
2023-03-31T07:25:35.508Z,11.02
2023-03-31T07:26:35.516Z,11.08
2023-03-31T07:27:35.486Z,11.07
2023-03-31T07:28:35.471Z,11.12
2023-03-31T07:29:35.460Z,11.08
2023-03-31T07:30:35.462Z,11.11
2023-03-31T07:31:35.486Z,11.08
2023-03-31T07:32:35.431Z,11.15
2023-03-31T07:33:35.405Z,11.12
2023-03-31T07:34:37.507Z,11.19
2023-03-31T07:35:35.405Z,11.19
2023-03-31T07:36:35.459Z,11.25
2023-03-31T07:37:35.377Z,11.25
2023-03-31T07:38:35.341Z,11.23
2023-03-31T07:39:35.336Z,11.27
2023-03-31T07:40:35.348Z,11.25
2023-03-31T07:41:35.315Z,11.29
2023-03-31T07:42:35.287Z,11.29
2023-03-31T07:43:35.278Z,11.29
2023-03-31T07:44:35.278Z,11.32
2023-03-31T07:45:35.307Z,11.32
2023-03-31T07:46:35.303Z,11.27
2023-03-31T07:47:35.258Z,11.23
2023-03-31T07:48:35.219Z,11.22
2023-03-31T07:49:35.196Z,11.23
2023-03-31T07:50:35.179Z,11.15
2023-03-31T07:51:35.188Z,11.15
2023-03-31T07:52:35.161Z,11.11
2023-03-31T07:53:35.144Z,11.11
2023-03-31T07:54:35.135Z,11.10
2023-03-31T07:55:35.119Z,11.10
2023-03-31T07:56:35.140Z,11.10
2023-03-31T07:57:35.144Z,11.15
2023-03-31T07:58:35.077Z,11.12
2023-03-31T07:59:35.073Z,11.12
2023-03-31T08:00:35.058Z,11.15
2023-03-31T08:01:35.098Z,11.15
2023-03-31T08:02:35.182Z,11.12
2023-03-31T08:03:35.080Z,11.12
2023-03-31T08:04:35.074Z,11.10
2023-03-31T08:05:34.991Z,11.11
2023-03-31T08:06:34.974Z,11.14
2023-03-31T08:07:34.987Z,11.11
2023-03-31T08:08:34.950Z,11.08
2023-03-31T08:09:34.940Z,11.04
2023-03-31T08:10:34.936Z,10.99
2023-03-31T08:11:34.912Z,10.97
2023-03-31T08:12:34.916Z,10.99
2023-03-31T08:13:34.885Z,10.96
2023-03-31T08:14:41.096Z,10.93
2023-03-31T08:15:34.898Z,10.94
2023-03-31T08:16:34.873Z,10.97
2023-03-31T08:17:34.945Z,10.99
2023-03-31T08:18:34.852Z,10.94
2023-03-31T08:19:34.822Z,10.96
2023-03-31T08:20:34.806Z,11.00
2023-03-31T08:21:34.786Z,11.02
2023-03-31T08:22:34.826Z,11.05
2023-03-31T08:23:34.768Z,11.12
2023-03-31T08:24:34.750Z,11.17
2023-03-31T08:25:34.737Z,11.22
2023-03-31T08:26:34.718Z,11.29
2023-03-31T08:27:34.721Z,11.37
2023-03-31T08:28:34.692Z,11.44
2023-03-31T08:29:34.680Z,11.51
2023-03-31T08:30:34.675Z,11.54
2023-03-31T08:31:34.721Z,11.60
2023-03-31T08:32:34.731Z,11.70
2023-03-31T08:33:34.635Z,11.86
2023-03-31T08:34:34.653Z,12.00
2023-03-31T08:35:34.633Z,12.13
2023-03-31T08:36:34.592Z,12.32
2023-03-31T08:37:34.615Z,12.58
2023-03-31T08:38:34.560Z,13.30
2023-03-31T08:39:34.544Z,14.29
2023-03-31T08:40:34.535Z,14.77
2023-03-31T08:41:34.519Z,15.46
2023-03-31T08:42:34.542Z,15.94
2023-03-31T08:43:34.502Z,15.91
2023-03-31T08:44:34.475Z,15.42
2023-03-31T08:45:34.546Z,15.52
2023-03-31T08:46:34.523Z,15.97
2023-03-31T08:47:34.494Z,15.54
2023-03-31T08:48:34.424Z,14.25
2023-03-31T08:49:34.423Z,13.71
2023-03-31T08:50:34.520Z,13.56
2023-03-31T08:51:34.398Z,13.31
2023-03-31T08:52:34.384Z,13.00
2023-03-31T08:53:34.366Z,12.82
2023-03-31T08:54:34.376Z,12.64
2023-03-31T08:55:34.330Z,12.54
2023-03-31T08:56:34.321Z,12.45
2023-03-31T08:57:34.339Z,12.45
2023-03-31T08:58:34.295Z,12.43
2023-03-31T08:59:34.293Z,12.39
2023-03-31T09:00:34.278Z,12.37
2023-03-31T09:01:47.772Z,12.32
2023-03-31T09:02:34.451Z,12.29
2023-03-31T09:03:34.364Z,12.22
2023-03-31T09:04:34.212Z,12.21
2023-03-31T09:05:34.199Z,12.21
2023-03-31T09:06:34.207Z,12.22
2023-03-31T09:07:34.190Z,12.22
2023-03-31T09:08:34.164Z,12.22
2023-03-31T09:09:34.249Z,12.22
2023-03-31T09:10:34.149Z,12.28
2023-03-31T09:11:34.120Z,12.22
2023-03-31T09:12:34.122Z,12.27
2023-03-31T09:13:34.091Z,12.31
2023-03-31T09:14:34.081Z,12.27
2023-03-31T09:15:34.075Z,12.21
2023-03-31T09:16:34.099Z,12.27
2023-03-31T09:17:34.100Z,12.20
2023-03-31T09:18:34.034Z,12.22
2023-03-31T09:19:34.025Z,12.32
2023-03-31T09:20:34.003Z,12.40
2023-03-31T09:21:33.995Z,12.50
2023-03-31T09:22:34.055Z,12.58
2023-03-31T09:23:33.976Z,12.61
2023-03-31T09:24:33.969Z,12.72
2023-03-31T09:25:33.934Z,12.87
2023-03-31T09:26:33.927Z,12.86
2023-03-31T09:27:33.910Z,12.70
2023-03-31T09:28:33.914Z,12.80
2023-03-31T09:29:33.883Z,13.75
2023-03-31T09:30:33.877Z,14.58
2023-03-31T09:31:33.885Z,15.47
2023-03-31T09:32:33.889Z,15.79
2023-03-31T09:33:33.843Z,16.49
2023-03-31T09:34:33.827Z,16.43
2023-03-31T09:35:33.990Z,16.23
2023-03-31T09:36:33.790Z,15.22
2023-03-31T09:37:33.776Z,14.32
2023-03-31T09:38:33.804Z,13.90
2023-03-31T09:39:33.749Z,13.77
2023-03-31T09:40:33.741Z,13.44
2023-03-31T09:41:34.316Z,13.20
2023-03-31T09:42:33.709Z,13.15
2023-03-31T09:43:33.711Z,13.11
2023-03-31T09:44:33.683Z,13.01
2023-03-31T09:45:33.670Z,12.97
2023-03-31T09:46:33.713Z,12.97
2023-03-31T09:47:33.693Z,12.94
2023-03-31T09:48:33.669Z,12.94
2023-03-31T09:49:33.628Z,12.97
2023-03-31T09:50:33.606Z,12.97
2023-03-31T09:51:33.590Z,12.97
2023-03-31T09:52:33.576Z,13.00
2023-03-31T09:53:33.592Z,13.01
2023-03-31T09:54:33.575Z,13.05
2023-03-31T09:55:39.647Z,13.04
2023-03-31T09:56:33.531Z,13.22
2023-03-31T09:57:34.324Z,13.12
2023-03-31T09:58:33.511Z,13.27
2023-03-31T09:59:33.483Z,13.59
2023-03-31T10:00:33.469Z,13.89
2023-03-31T10:01:33.511Z,14.00
2023-03-31T10:02:33.460Z,13.89
2023-03-31T10:03:33.461Z,13.86
2023-03-31T10:04:33.543Z,13.93
2023-03-31T10:05:33.409Z,13.92
2023-03-31T10:06:33.399Z,14.25
2023-03-31T10:07:33.382Z,14.29
2023-03-31T10:08:33.384Z,14.17
2023-03-31T10:09:33.351Z,13.87
2023-03-31T10:10:33.371Z,13.71
2023-03-31T10:11:33.353Z,13.70
2023-03-31T10:12:33.314Z,13.72
2023-03-31T10:13:33.326Z,13.96
2023-03-31T10:14:33.291Z,13.79
2023-03-31T10:15:33.326Z,13.71
2023-03-31T10:16:33.297Z,13.67
2023-03-31T10:17:43.556Z,13.54
2023-03-31T10:18:33.310Z,13.54
2023-03-31T10:19:33.223Z,13.42
2023-03-31T10:20:33.208Z,13.25
2023-03-31T10:21:33.202Z,13.28
2023-03-31T10:22:33.183Z,13.28
2023-03-31T10:23:33.197Z,13.20
2023-03-31T10:24:33.158Z,13.09
2023-03-31T10:25:33.144Z,13.13
2023-03-31T10:26:33.176Z,13.08
2023-03-31T10:27:33.120Z,13.00
2023-03-31T10:28:33.125Z,12.97
2023-03-31T10:29:33.088Z,12.98
2023-03-31T10:30:33.076Z,12.91
2023-03-31T10:31:33.090Z,12.73
2023-03-31T10:32:33.074Z,12.65
2023-03-31T10:33:33.108Z,12.50
2023-03-31T10:34:33.018Z,12.36
2023-03-31T10:35:33.051Z,12.18
2023-03-31T10:36:33.008Z,12.02
2023-03-31T10:37:32.981Z,11.90
2023-03-31T10:38:32.972Z,11.84
2023-03-31T10:39:32.971Z,11.78
2023-03-31T10:40:33.042Z,11.75
2023-03-31T10:41:32.926Z,11.75
2023-03-31T10:42:32.978Z,11.80
2023-03-31T10:43:32.899Z,11.83
2023-03-31T10:44:32.955Z,11.87
2023-03-31T10:45:37.913Z,11.97
2023-03-31T10:46:32.873Z,12.07
2023-03-31T10:47:32.873Z,12.20
2023-03-31T10:48:32.831Z,12.31
2023-03-31T10:49:32.832Z,12.36
2023-03-31T10:50:32.804Z,12.47
2023-03-31T10:51:32.798Z,12.55
2023-03-31T10:52:32.776Z,12.67
2023-03-31T10:53:32.762Z,12.85
2023-03-31T10:54:32.765Z,12.90
2023-03-31T10:55:32.743Z,12.95
2023-03-31T10:56:32.724Z,12.83
2023-03-31T10:57:32.775Z,12.72
2023-03-31T10:58:32.776Z,12.54
2023-03-31T10:59:32.696Z,12.39
2023-03-31T11:00:32.677Z,12.29
2023-03-31T11:01:32.735Z,12.22
2023-03-31T11:02:32.739Z,12.18
2023-03-31T11:03:32.767Z,12.09
2023-03-31T11:04:32.647Z,12.12
2023-03-31T11:05:32.598Z,12.12
2023-03-31T11:06:32.647Z,12.22
2023-03-31T11:07:32.612Z,12.17
2023-03-31T11:08:32.563Z,12.24
2023-03-31T11:09:32.568Z,12.07
2023-03-31T11:10:32.544Z,11.99
2023-03-31T11:11:32.527Z,11.94
2023-03-31T11:12:32.512Z,11.84
2023-03-31T11:13:32.523Z,11.86
2023-03-31T11:14:32.526Z,11.95
2023-03-31T11:15:32.479Z,11.91
2023-03-31T11:16:32.730Z,11.88
2023-03-31T11:17:32.491Z,12.03
2023-03-31T11:18:32.442Z,12.09
2023-03-31T11:19:32.448Z,11.99
2023-03-31T11:20:32.422Z,12.09
2023-03-31T11:21:32.391Z,12.20
2023-03-31T11:22:32.382Z,12.25
2023-03-31T11:23:32.376Z,12.25
2023-03-31T11:24:32.352Z,12.31
2023-03-31T11:25:32.352Z,12.45
2023-03-31T11:26:32.332Z,12.61
2023-03-31T11:27:32.313Z,12.75
2023-03-31T11:28:32.302Z,12.93
2023-03-31T11:29:32.304Z,13.01
2023-03-31T11:30:32.353Z,13.15
2023-03-31T11:31:32.317Z,13.20
2023-03-31T11:32:32.288Z,13.30
2023-03-31T11:33:32.233Z,13.39
2023-03-31T11:34:32.217Z,13.39
2023-03-31T11:35:32.220Z,13.59
2023-03-31T11:36:32.197Z,13.56
2023-03-31T11:37:32.298Z,13.75
2023-03-31T11:38:32.166Z,13.87
2023-03-31T11:39:32.153Z,13.86
2023-03-31T11:40:32.166Z,14.04
2023-03-31T11:41:32.128Z,14.14
2023-03-31T11:42:32.116Z,14.11
2023-03-31T11:43:32.099Z,14.23
2023-03-31T11:44:32.089Z,14.25
2023-03-31T11:45:32.094Z,14.86
2023-03-31T11:46:32.166Z,15.18
2023-03-31T11:47:32.110Z,15.39
2023-03-31T11:48:32.034Z,15.76
2023-03-31T11:49:32.040Z,15.55
2023-03-31T11:50:32.030Z,15.62
2023-03-31T11:51:31.990Z,15.36
2023-03-31T11:52:31.985Z,14.89
2023-03-31T11:53:31.972Z,14.72
2023-03-31T11:54:31.970Z,14.70
2023-03-31T11:55:31.963Z,15.00
2023-03-31T11:56:31.927Z,14.96
2023-03-31T11:57:31.962Z,15.06
2023-03-31T11:58:31.899Z,15.10
2023-03-31T11:59:31.897Z,15.42
2023-03-31T12:00:31.902Z,16.46
2023-03-31T12:01:31.857Z,17.56
2023-03-31T12:02:31.908Z,17.89
2023-03-31T12:03:31.859Z,17.04
2023-03-31T12:04:31.824Z,17.06
2023-03-31T12:05:31.856Z,17.33
2023-03-31T12:06:31.830Z,16.13
2023-03-31T12:07:31.774Z,15.49
2023-03-31T12:08:31.801Z,15.46
2023-03-31T12:09:31.748Z,15.17
2023-03-31T12:10:31.809Z,15.14
2023-03-31T12:11:31.740Z,15.14
2023-03-31T12:12:31.723Z,15.19
2023-03-31T12:13:31.698Z,15.17
2023-03-31T12:14:31.685Z,15.11
2023-03-31T12:15:31.707Z,14.94
2023-03-31T12:16:31.716Z,14.68
2023-03-31T12:17:32.223Z,14.53
2023-03-31T12:18:31.761Z,14.58
2023-03-31T12:19:31.617Z,14.62
2023-03-31T12:20:31.631Z,14.69
2023-03-31T12:21:31.606Z,14.73
2023-03-31T12:22:31.586Z,14.63
2023-03-31T12:23:31.560Z,14.43
2023-03-31T12:24:31.601Z,14.50
2023-03-31T12:25:31.554Z,14.45
2023-03-31T12:26:31.523Z,14.36
2023-03-31T12:27:31.517Z,14.45
2023-03-31T12:28:31.497Z,14.36
2023-03-31T12:29:31.486Z,14.37
2023-03-31T12:30:31.497Z,14.30
2023-03-31T12:31:31.503Z,14.28
2023-03-31T12:32:31.558Z,14.14
2023-03-31T12:33:31.430Z,14.20
2023-03-31T12:34:31.451Z,14.60
2023-03-31T12:35:31.488Z,14.88
2023-03-31T12:36:31.396Z,14.89
2023-03-31T12:37:31.384Z,14.99
2023-03-31T12:38:31.375Z,14.78
2023-03-31T12:39:31.354Z,14.82
2023-03-31T12:40:31.376Z,14.82
2023-03-31T12:41:31.382Z,14.85
2023-03-31T12:42:31.317Z,15.18
2023-03-31T12:43:31.313Z,15.40
2023-03-31T12:44:31.316Z,15.59
2023-03-31T12:45:31.328Z,15.55
2023-03-31T12:46:31.323Z,15.77
2023-03-31T12:47:31.277Z,16.47
2023-03-31T12:48:31.243Z,17.16
2023-03-31T12:49:31.273Z,17.27
2023-03-31T12:50:31.252Z,16.76
2023-03-31T12:51:31.225Z,16.32
2023-03-31T12:52:31.183Z,16.12